^^
Daily Summary for May 11, 2021 Units:  English    Metric   Both
Daily Weekly Monthly Yearly Custom
  High: Low: Average:
Temperature: 91.0 °F 58.0 °F 71.7 °F
Dew Point: 44.0 °F 25.0 °F 35.1 °F
Humidity: 50% 12% 28%
Wind Speed: 16mph 0mph 2.1mph
Wind Gust: 16mph - -
Wind- - SSE
Pressure: 30.0 in 29.9 in -
Precipitation: 0.000 in    
Historical Graphs
 
 
Tabular Data for May 11, 2021
Time Temperature Dew Point Pressure Wind Wind Speed Wind Gust Humidity Rainfall Rate (Hourly) solar
00:04 60.0 °F 41.0 °F 29.9 in Calm     49% 0.000 in 0.00 W/m2
00:09 60.0 °F 40.0 °F 29.9 in Calm     48% 0.000 in 0.00 W/m2
00:14 60.0 °F 39.0 °F 29.9 in Calm     47% 0.000 in 0.00 W/m2
00:19 60.0 °F 39.0 °F 29.9 in Calm     47% 0.000 in 0.00 W/m2
00:24 59.0 °F 40.0 °F 29.9 in Calm     48% 0.000 in 0.00 W/m2
00:29 59.0 °F 39.0 °F 29.9 in Calm     47% 0.000 in 0.00 W/m2
00:34 59.0 °F 39.0 °F 29.9 in Calm     47% 0.000 in 0.00 W/m2
00:39 59.0 °F 40.0 °F 29.9 in Calm     50% 0.000 in 0.00 W/m2
00:44 59.0 °F 40.0 °F 29.9 in Calm     50% 0.000 in 0.00 W/m2
00:49 59.0 °F 39.0 °F 29.9 in Calm     47% 0.000 in 0.00 W/m2
00:54 59.0 °F 36.0 °F 29.9 in Calm     43% 0.000 in 0.00 W/m2
00:59 58.0 °F 35.0 °F 29.9 in Calm     41% 0.000 in 0.00 W/m2
01:04 58.0 °F 34.0 °F 29.9 in Calm     40% 0.000 in 0.00 W/m2
01:09 58.0 °F 35.0 °F 29.9 in Calm     42% 0.000 in 0.00 W/m2
01:14 59.0 °F 34.0 °F 29.9 in Calm     39% 0.000 in 0.00 W/m2
01:19 59.0 °F 34.0 °F 29.9 in Calm     39% 0.000 in 0.00 W/m2
01:24 59.0 °F 33.0 °F 29.9 in Calm     38% 0.000 in 0.00 W/m2
01:29 59.0 °F 33.0 °F 29.9 in SE 2 mph   37% 0.000 in 0.00 W/m2
01:34 59.0 °F 31.0 °F 29.9 in SE 2 mph 2 mph 34% 0.000 in 0.00 W/m2
01:39 59.0 °F 32.0 °F 29.9 in SE 2 mph 2 mph 36% 0.000 in 0.00 W/m2
01:44 60.0 °F 32.0 °F 29.9 in SE 2 mph 2 mph 35% 0.000 in 0.00 W/m2
01:49 60.0 °F 31.0 °F 29.9 in SE 2 mph 2 mph 34% 0.000 in 0.00 W/m2
01:54 60.0 °F 29.0 °F 29.9 in SE 2 mph   30% 0.000 in 0.00 W/m2
01:59 61.0 °F 29.0 °F 29.9 in Calm   2 mph 30% 0.000 in 0.00 W/m2
02:04 61.0 °F 31.0 °F 29.9 in SE 2 mph   32% 0.000 in 0.00 W/m2
02:09 61.0 °F 33.0 °F 29.9 in SE 2 mph 2 mph 35% 0.000 in 0.00 W/m2
02:14 61.0 °F 30.0 °F 29.9 in Calm     31% 0.000 in 0.00 W/m2
02:19 61.0 °F 29.0 °F 29.9 in Calm     29% 0.000 in 0.00 W/m2
02:24 62.0 °F 31.0 °F 29.9 in Calm     32% 0.000 in 0.00 W/m2
02:29 62.0 °F 31.0 °F 29.9 in NNE 2 mph   31% 0.000 in 0.00 W/m2
02:33 62.0 °F 29.0 °F 29.9 in NNE 2 mph 2 mph 29% 0.000 in 0.00 W/m2
02:39 62.0 °F 28.0 °F 29.9 in Calm   2 mph 28% 0.000 in 0.00 W/m2
02:44 62.0 °F 29.0 °F 29.9 in Calm     29% 0.000 in 0.00 W/m2
02:49 62.0 °F 29.0 °F 29.9 in NNE 2 mph   29% 0.000 in 0.00 W/m2
02:54 62.0 °F 31.0 °F 29.9 in Calm   2 mph 31% 0.000 in 0.00 W/m2
02:59 62.0 °F 30.0 °F 29.9 in Calm     30% 0.000 in 0.00 W/m2
03:04 62.0 °F 30.0 °F 29.9 in Calm     30% 0.000 in 0.00 W/m2
03:09 62.0 °F 30.0 °F 29.9 in Calm     30% 0.000 in 0.00 W/m2
03:14 61.0 °F 30.0 °F 29.9 in Calm     31% 0.000 in 0.00 W/m2
03:19 61.0 °F 30.0 °F 29.9 in Calm     31% 0.000 in 0.00 W/m2
03:24 61.0 °F 29.0 °F 29.9 in Calm     30% 0.000 in 0.00 W/m2
03:29 61.0 °F 31.0 °F 29.9 in Calm     32% 0.000 in 0.00 W/m2
03:34 61.0 °F 31.0 °F 29.9 in Calm     32% 0.000 in 0.00 W/m2
03:39 60.0 °F 30.0 °F 29.9 in Calm     32% 0.000 in 0.00 W/m2
03:44 60.0 °F 30.0 °F 29.9 in Calm     32% 0.000 in 0.00 W/m2
03:49 60.0 °F 30.0 °F 29.9 in Calm     32% 0.000 in 0.00 W/m2
03:54 60.0 °F 30.0 °F 29.9 in Calm     32% 0.000 in 0.00 W/m2
03:59 59.0 °F 30.0 °F 29.9 in Calm     32% 0.000 in 0.00 W/m2
04:04 59.0 °F 29.0 °F 29.9 in NNE 2 mph 2 mph 31% 0.000 in 0.00 W/m2
04:09 59.0 °F 28.0 °F 29.9 in NNE 2 mph   31% 0.000 in 0.00 W/m2
04:14 59.0 °F 28.0 °F 29.9 in NNE 2 mph 2 mph 31% 0.000 in 0.00 W/m2
04:19 59.0 °F 28.0 °F 29.9 in Calm     31% 0.000 in 0.00 W/m2
04:24 59.0 °F 28.0 °F 29.9 in Calm     31% 0.000 in 0.00 W/m2
04:29 59.0 °F 29.0 °F 29.9 in NNE 2 mph   32% 0.000 in 0.00 W/m2
04:34 59.0 °F 29.0 °F 29.9 in Calm   2 mph 32% 0.000 in 0.00 W/m2
04:39 59.0 °F 29.0 °F 29.9 in Calm     32% 0.000 in 0.00 W/m2
04:44 59.0 °F 29.0 °F 29.9 in ENE 2 mph   32% 0.000 in 0.00 W/m2
04:49 59.0 °F 29.0 °F 29.9 in ENE 2 mph 2 mph 32% 0.000 in 0.00 W/m2
04:54 59.0 °F 29.0 °F 29.9 in Calm     32% 0.000 in 0.00 W/m2
04:59 59.0 °F 27.0 °F 29.9 in NE 2 mph 1 mph 29% 0.000 in 0.00 W/m2
05:04 59.0 °F 27.0 °F 29.9 in Calm   2 mph 29% 0.000 in 0.00 W/m2
05:09 59.0 °F 27.0 °F 29.9 in ENE 4 mph   29% 0.000 in 0.00 W/m2
05:14 60.0 °F 26.0 °F 29.9 in ENE 4 mph 3 mph 28% 0.000 in 0.00 W/m2
05:19 60.0 °F 26.0 °F 29.9 in Calm   3 mph 27% 0.000 in 0.00 W/m2
05:24 60.0 °F 25.0 °F 29.9 in ENE 2 mph   26% 0.000 in 0.00 W/m2
05:29 60.0 °F 26.0 °F 29.9 in Calm   2 mph 27% 0.000 in 0.00 W/m2
05:33 60.0 °F 27.0 °F 29.9 in Calm     28% 0.000 in 0.00 W/m2
05:39 60.0 °F 27.0 °F 29.9 in Calm     28% 0.000 in 0.00 W/m2
05:44 60.0 °F 29.0 °F 29.9 in Calm     30% 0.000 in 0.00 W/m2
05:49 60.0 °F 28.0 °F 29.9 in Calm     29% 0.000 in 0.00 W/m2
05:54 60.0 °F 29.0 °F 29.9 in Calm     30% 0.000 in 0.00 W/m2
05:59 60.0 °F 29.0 °F 29.9 in Calm     30% 0.000 in 0.00 W/m2
06:04 60.0 °F 28.0 °F 29.9 in ENE 2 mph   29% 0.000 in 5.00 W/m2
06:09 60.0 °F 28.0 °F 29.9 in Calm   2 mph 30% 0.000 in 5.00 W/m2
06:14 60.0 °F 27.0 °F 29.9 in NE 2 mph 1 mph 28% 0.000 in 7.00 W/m2
06:19 60.0 °F 27.0 °F 29.9 in ENE 2 mph 2 mph 29% 0.000 in 9.00 W/m2
06:24 60.0 °F 26.0 °F 29.9 in ENE 2 mph   28% 0.000 in 11.00 W/m2
06:29 60.0 °F 28.0 °F 29.9 in Calm   2 mph 30% 0.000 in 11.00 W/m2
06:34 60.0 °F 29.0 °F 29.9 in ENE 2 mph   31% 0.000 in 12.00 W/m2
06:39 59.0 °F 29.0 °F 29.9 in NE 2 mph 2 mph 31% 0.000 in 14.00 W/m2
06:44 59.0 °F 29.0 °F 29.9 in Calm   2 mph 31% 0.000 in 14.00 W/m2
06:49 59.0 °F 29.0 °F 29.9 in Calm     32% 0.000 in 16.00 W/m2
06:54 59.0 °F 29.0 °F 29.9 in NE 4 mph 1 mph 32% 0.000 in 18.00 W/m2
06:59 59.0 °F 29.0 °F 29.9 in NE 2 mph 3 mph 32% 0.000 in 18.00 W/m2
07:04 59.0 °F 31.0 °F 29.9 in NE 2 mph 2 mph 35% 0.000 in 19.00 W/m2
07:09 59.0 °F 31.0 °F 29.9 in Calm   2 mph 35% 0.000 in 19.00 W/m2
07:14 59.0 °F 32.0 °F 30.0 in Calm     36% 0.000 in 21.00 W/m2
07:19 59.0 °F 32.0 °F 30.0 in Calm     36% 0.000 in 23.00 W/m2
07:24 59.0 °F 32.0 °F 30.0 in Calm     36% 0.000 in 23.00 W/m2
07:29 59.0 °F 33.0 °F 30.0 in Calm     38% 0.000 in 25.00 W/m2
07:34 59.0 °F 33.0 °F 30.0 in Calm     38% 0.000 in 26.00 W/m2
07:39 59.0 °F 34.0 °F 30.0 in Calm     39% 0.000 in 28.00 W/m2
07:44 59.0 °F 35.0 °F 30.0 in Calm     41% 0.000 in 30.00 W/m2
07:49 59.0 °F 36.0 °F 30.0 in Calm     42% 0.000 in 33.00 W/m2
07:54 59.0 °F 36.0 °F 30.0 in Calm     43% 0.000 in 39.00 W/m2
07:59 59.0 °F 38.0 °F 30.0 in Calm     45% 0.000 in 74.00 W/m2
08:04 59.0 °F 38.0 °F 30.0 in Calm     45% 0.000 in 100.00 W/m2
08:09 59.0 °F 38.0 °F 30.0 in Calm     45% 0.000 in 267.00 W/m2
08:14 60.0 °F 39.0 °F 30.0 in Calm     46% 0.000 in 438.00 W/m2
08:19 60.0 °F 39.0 °F 30.0 in Calm     46% 0.000 in 452.00 W/m2
08:24 61.0 °F 41.0 °F 30.0 in Calm     48% 0.000 in 476.00 W/m2
08:29 62.0 °F 42.0 °F 30.0 in Calm     48% 0.000 in 490.00 W/m2
08:34 62.0 °F 43.0 °F 30.0 in Calm     50% 0.000 in 508.00 W/m2
08:39 63.0 °F 44.0 °F 30.0 in Calm     50% 0.000 in 527.00 W/m2
08:43 64.0 °F 43.0 °F 30.0 in Calm     47% 0.000 in 538.00 W/m2
08:49 66.0 °F 43.0 °F 30.0 in Calm     44% 0.000 in 561.00 W/m2
08:54 67.0 °F 42.0 °F 30.0 in Calm     41% 0.000 in 580.00 W/m2
08:59 68.0 °F 42.0 °F 30.0 in NE 2 mph   40% 0.000 in 594.00 W/m2
09:04 69.0 °F 43.0 °F 30.0 in Calm   2 mph 38% 0.000 in 615.00 W/m2
09:09 70.0 °F 43.0 °F 30.0 in Calm     38% 0.000 in 629.00 W/m2
09:14 71.0 °F 41.0 °F 30.0 in Calm     35% 0.000 in 645.00 W/m2
09:19 72.0 °F 37.0 °F 30.0 in Calm     29% 0.000 in 659.00 W/m2
09:24 73.0 °F 35.0 °F 30.0 in Calm     26% 0.000 in 675.00 W/m2
09:29 74.0 °F 35.0 °F 30.0 in Calm     25% 0.000 in 687.00 W/m2
09:34 74.0 °F 39.0 °F 30.0 in NE 2 mph   28% 0.000 in 705.00 W/m2
09:39 75.0 °F 38.0 °F 30.0 in SE 6 mph 2 mph 27% 0.000 in 717.00 W/m2
09:44 76.0 °F 36.0 °F 30.0 in SE 4 mph 6 mph 24% 0.000 in 731.00 W/m2
09:49 76.0 °F 36.0 °F 30.0 in SSE 2 mph 2 mph 23% 0.000 in 744.00 W/m2
09:54 77.0 °F 38.0 °F 30.0 in SE 2 mph 2 mph 25% 0.000 in 756.00 W/m2
09:59 77.0 °F 37.0 °F 30.0 in SSE 2 mph 2 mph 24% 0.000 in 770.00 W/m2
10:04 77.0 °F 38.0 °F 30.0 in SE 4 mph 2 mph 24% 0.000 in 789.00 W/m2
10:09 78.0 °F 36.0 °F 30.0 in South 4 mph 3 mph 22% 0.000 in 796.00 W/m2
10:14 78.0 °F 36.0 °F 30.0 in SSW 2 mph 2 mph 22% 0.000 in 803.00 W/m2
10:19 78.0 °F 38.0 °F 30.0 in SSE 7 mph 5 mph 24% 0.000 in 793.00 W/m2
10:24 78.0 °F 37.0 °F 30.0 in SSE 7 mph 7 mph 23% 0.000 in 830.00 W/m2
10:29 78.0 °F 40.0 °F 30.0 in SSW 4 mph 3 mph 25% 0.000 in 842.00 W/m2
10:34 79.0 °F 40.0 °F 30.0 in SSE 6 mph 3 mph 25% 0.000 in 853.00 W/m2
10:39 79.0 °F 36.0 °F 30.0 in SSW 2 mph 6 mph 21% 0.000 in 865.00 W/m2
10:44 79.0 °F 37.0 °F 30.0 in South 7 mph 4 mph 22% 0.000 in 874.00 W/m2
10:49 79.0 °F 36.0 °F 30.0 in SSW 6 mph 7 mph 21% 0.000 in 884.00 W/m2
10:54 79.0 °F 36.0 °F 30.0 in South 2 mph 6 mph 21% 0.000 in 889.00 W/m2
10:59 79.0 °F 39.0 °F 30.0 in SW 4 mph 3 mph 24% 0.000 in 900.00 W/m2
11:04 80.0 °F 39.0 °F 30.0 in SSW 4 mph 3 mph 24% 0.000 in 909.00 W/m2
11:09 80.0 °F 39.0 °F 30.0 in SSE 9 mph 3 mph 23% 0.000 in 916.00 W/m2
11:14 80.0 °F 39.0 °F 30.0 in South 4 mph 9 mph 23% 0.000 in 925.00 W/m2
11:19 80.0 °F 39.0 °F 30.0 in SSE 2 mph 3 mph 23% 0.000 in 930.00 W/m2
11:23 81.0 °F 38.0 °F 30.0 in SSW 7 mph 5 mph 22% 0.000 in 937.00 W/m2
11:29 81.0 °F 37.0 °F 30.0 in South 4 mph 7 mph 21% 0.000 in 946.00 W/m2
11:34 81.0 °F 36.0 °F 30.0 in SSW 2 mph 3 mph 20% 0.000 in 947.00 W/m2
11:39 82.0 °F 38.0 °F 30.0 in SE 2 mph 2 mph 21% 0.000 in 953.00 W/m2
11:44 82.0 °F 39.0 °F 30.0 in SSW 7 mph 5 mph 22% 0.000 in 963.00 W/m2
11:49 82.0 °F 39.0 °F 30.0 in SSW 2 mph 7 mph 22% 0.000 in 967.00 W/m2
11:54 82.0 °F 41.0 °F 30.0 in SSE 2 mph 2 mph 23% 0.000 in 972.00 W/m2
11:59 83.0 °F 40.0 °F 30.0 in SSE 7 mph 4 mph 22% 0.000 in 976.00 W/m2
12:04 83.0 °F 38.0 °F 30.0 in SSE 7 mph 7 mph 20% 0.000 in 979.00 W/m2
12:09 83.0 °F 40.0 °F 30.0 in SSW 2 mph 7 mph 22% 0.000 in 984.00 W/m2
12:14 83.0 °F 40.0 °F 30.0 in SSW 2 mph 2 mph 22% 0.000 in 986.00 W/m2
12:19 83.0 °F 39.0 °F 30.0 in NE 13 mph 10 mph 21% 0.000 in 988.00 W/m2
12:24 84.0 °F 39.0 °F 30.0 in South 9 mph 13 mph 21% 0.000 in 986.00 W/m2
12:29 84.0 °F 40.0 °F 30.0 in Calm   9 mph 21% 0.000 in 991.00 W/m2
12:34 85.0 °F 40.0 °F 30.0 in SW 6 mph 3 mph 21% 0.000 in 991.00 W/m2
12:39 85.0 °F 38.0 °F 30.0 in NW 2 mph 6 mph 19% 0.000 in 993.00 W/m2
12:44 85.0 °F 38.0 °F 30.0 in SW 7 mph 6 mph 19% 0.000 in 995.00 W/m2
12:49 85.0 °F 40.0 °F 30.0 in ESE 4 mph 7 mph 20% 0.000 in 997.00 W/m2
12:54 86.0 °F 39.0 °F 30.0 in South 7 mph 7 mph 19% 0.000 in 995.00 W/m2
12:59 86.0 °F 39.0 °F 30.0 in SSW 4 mph 3 mph 19% 0.000 in 993.00 W/m2
13:04 86.0 °F 39.0 °F 30.0 in South 4 mph 3 mph 19% 0.000 in 990.00 W/m2
13:08 86.0 °F 38.0 °F 30.0 in SE 11 mph 7 mph 18% 0.000 in 988.00 W/m2
13:14 86.0 °F 38.0 °F 30.0 in South 7 mph 10 mph 18% 0.000 in 986.00 W/m2
13:19 87.0 °F 37.0 °F 30.0 in South 5 mph 3 mph 17% 0.000 in 983.00 W/m2
13:24 87.0 °F 39.0 °F 30.0 in SSE 6 mph 6 mph 19% 0.000 in 979.00 W/m2
13:29 87.0 °F 39.0 °F 30.0 in South 7 mph 7 mph 19% 0.000 in 979.00 W/m2
13:34 87.0 °F 38.0 °F 30.0 in SSE 9 mph 6 mph 18% 0.000 in 974.00 W/m2
13:39 87.0 °F 41.0 °F 29.9 in SSE 2 mph 9 mph 20% 0.000 in 970.00 W/m2
13:44 88.0 °F 41.0 °F 29.9 in South 13 mph 8 mph 20% 0.000 in 969.00 W/m2
13:49 88.0 °F 36.0 °F 30.0 in SSE 7 mph 13 mph 16% 0.000 in 967.00 W/m2
13:54 88.0 °F 37.0 °F 29.9 in North 6 mph 6 mph 17% 0.000 in 958.00 W/m2
13:59 88.0 °F 39.0 °F 30.0 in SW 7 mph 4 mph 18% 0.000 in 951.00 W/m2
14:04 88.0 °F 36.0 °F 30.0 in ENE 7 mph 7 mph 16% 0.000 in 947.00 W/m2
14:09 88.0 °F 39.0 °F 29.9 in East 7 mph 5 mph 18% 0.000 in 939.00 W/m2
14:14 89.0 °F 40.0 °F 29.9 in ESE 6 mph 7 mph 18% 0.000 in 932.00 W/m2
14:19 89.0 °F 37.0 °F 29.9 in South 11 mph 10 mph 16% 0.000 in 925.00 W/m2
14:24 89.0 °F 37.0 °F 29.9 in ENE 2 mph 10 mph 16% 0.000 in 916.00 W/m2
14:29 90.0 °F 37.0 °F 29.9 in SE 2 mph 2 mph 16% 0.000 in 909.00 W/m2
14:34 90.0 °F 38.0 °F 29.9 in SW 7 mph 3 mph 16% 0.000 in 898.00 W/m2
14:39 90.0 °F 36.0 °F 29.9 in South 6 mph 7 mph 15% 0.000 in 889.00 W/m2
14:44 90.0 °F 34.0 °F 29.9 in SSE 11 mph 7 mph 14% 0.000 in 882.00 W/m2
14:49 90.0 °F 36.0 °F 29.9 in South 10 mph 10 mph 15% 0.000 in 870.00 W/m2
14:54 90.0 °F 38.0 °F 29.9 in SSW 6 mph 3 mph 16% 0.000 in 856.00 W/m2
14:59 90.0 °F 36.0 °F 29.9 in WSW 6 mph 6 mph 15% 0.000 in 853.00 W/m2
15:04 90.0 °F 38.0 °F 29.9 in SSE 6 mph 6 mph 16% 0.000 in 837.00 W/m2
15:09 91.0 °F 37.0 °F 29.9 in NNE 4 mph 6 mph 15% 0.000 in 826.00 W/m2
15:14 91.0 °F 37.0 °F 29.9 in South 16 mph 11 mph 15% 0.000 in 817.00 W/m2
15:19 91.0 °F 37.0 °F 29.9 in South 16 mph 16 mph 15% 0.000 in 807.00 W/m2
15:24 91.0 °F 37.0 °F 29.9 in SE 4 mph 7 mph 15% 0.000 in 796.00 W/m2
15:29 91.0 °F 35.0 °F 29.9 in SSW 6 mph 4 mph 14% 0.000 in 784.00 W/m2
15:34 91.0 °F 40.0 °F 29.9 in SSE 6 mph 6 mph 17% 0.000 in 768.00 W/m2
15:39 91.0 °F 38.0 °F 29.9 in South 4 mph 3 mph 16% 0.000 in 758.00 W/m2
15:44 91.0 °F 39.0 °F 29.9 in South 6 mph 3 mph 16% 0.000 in 747.00 W/m2
15:49 91.0 °F 33.0 °F 29.9 in SW 6 mph 6 mph 13% 0.000 in 745.00 W/m2
15:54 91.0 °F 31.0 °F 29.9 in SSW 4 mph 6 mph 12% 0.000 in 721.00 W/m2
15:59 91.0 °F 35.0 °F 29.9 in SW 5 mph 4 mph 14% 0.000 in 705.00 W/m2
16:04 91.0 °F 33.0 °F 29.9 in WSW 6 mph 6 mph 13% 0.000 in 691.00 W/m2
16:19 91.0 °F 33.0 °F 29.9 in SSW 4 mph 2 mph 13% 0.000 in 647.00 W/m2
16:24 91.0 °F 33.0 °F 29.9 in SSW 2 mph 3 mph 13% 0.000 in 631.00 W/m2
16:29 91.0 °F 37.0 °F 29.9 in ESE 2 mph 2 mph 15% 0.000 in 615.00 W/m2
17:19 91.0 °F 33.0 °F 29.9 in South 2 mph   13% 0.000 in 441.00 W/m2
17:24 90.0 °F 35.0 °F 29.9 in SW 4 mph 2 mph 14% 0.000 in 436.00 W/m2
17:29 90.0 °F 34.0 °F 29.9 in SSE 7 mph 7 mph 14% 0.000 in 422.00 W/m2
17:34 90.0 °F 34.0 °F 29.9 in South 4 mph 6 mph 14% 0.000 in 401.00 W/m2
17:39 90.0 °F 32.0 °F 29.9 in South 2 mph 2 mph 13% 0.000 in 385.00 W/m2
17:44 89.0 °F 34.0 °F 29.9 in South 4 mph 2 mph 14% 0.000 in 334.00 W/m2
17:49 89.0 °F 37.0 °F 29.9 in East 2 mph 3 mph 16% 0.000 in 65.00 W/m2
17:54 88.0 °F 33.0 °F 29.9 in SSE 4 mph 2 mph 14% 0.000 in 54.00 W/m2
17:59 88.0 °F 36.0 °F 29.9 in SSE 4 mph 3 mph 16% 0.000 in 51.00 W/m2
18:04 87.0 °F 34.0 °F 29.9 in South 2 mph   15% 0.000 in 47.00 W/m2
18:09 87.0 °F 32.0 °F 29.9 in SSW 4 mph 2 mph 14% 0.000 in 44.00 W/m2
18:14 86.0 °F 35.0 °F 29.9 in SSW 2 mph 3 mph 16% 0.000 in 40.00 W/m2
18:19 86.0 °F 36.0 °F 29.9 in Calm   2 mph 17% 0.000 in 37.00 W/m2
18:23 86.0 °F 34.0 °F 29.9 in WSW 2 mph 1 mph 16% 0.000 in 33.00 W/m2
18:29 85.0 °F 34.0 °F 29.9 in SE 4 mph 3 mph 16% 0.000 in 32.00 W/m2
18:34 85.0 °F 36.0 °F 29.9 in SSE 2 mph 3 mph 18% 0.000 in 30.00 W/m2
18:39 84.0 °F 36.0 °F 29.9 in SSE 2 mph 2 mph 18% 0.000 in 28.00 W/m2
18:44 84.0 °F 36.0 °F 29.9 in SW 4 mph 2 mph 18% 0.000 in 32.00 W/m2
18:49 84.0 °F 41.0 °F 29.9 in Calm   3 mph 22% 0.000 in 33.00 W/m2
18:54 84.0 °F 41.0 °F 29.9 in Calm     22% 0.000 in 30.00 W/m2
18:59 83.0 °F 40.0 °F 29.9 in Calm     22% 0.000 in 21.00 W/m2
19:04 83.0 °F 35.0 °F 29.9 in Calm     18% 0.000 in 19.00 W/m2
19:09 83.0 °F 36.0 °F 29.9 in Calm     19% 0.000 in 18.00 W/m2
19:14 82.0 °F 38.0 °F 29.9 in Calm     21% 0.000 in 16.00 W/m2
19:19 82.0 °F 37.0 °F 29.9 in Calm     20% 0.000 in 14.00 W/m2
19:24 81.0 °F 37.0 °F 29.9 in Calm     21% 0.000 in 14.00 W/m2
19:29 80.0 °F 36.0 °F 29.9 in Calm     20% 0.000 in 12.00 W/m2
19:34 80.0 °F 38.0 °F 29.9 in Calm     23% 0.000 in 12.00 W/m2
19:39 79.0 °F 39.0 °F 29.9 in Calm     24% 0.000 in 11.00 W/m2
19:44 78.0 °F 38.0 °F 29.9 in Calm     25% 0.000 in 9.00 W/m2
19:49 77.0 °F 38.0 °F 30.0 in Calm     25% 0.000 in 9.00 W/m2
19:54 76.0 °F 38.0 °F 30.0 in Calm     26% 0.000 in 7.00 W/m2
19:59 75.0 °F 38.0 °F 30.0 in Calm     26% 0.000 in 5.00 W/m2
20:04 75.0 °F 37.0 °F 30.0 in Calm     26% 0.000 in 0.00 W/m2
20:09 74.0 °F 38.0 °F 29.9 in Calm     27% 0.000 in 0.00 W/m2
20:13 74.0 °F 36.0 °F 29.9 in Calm     25% 0.000 in 0.00 W/m2
20:19 73.0 °F 36.0 °F 30.0 in Calm     26% 0.000 in 0.00 W/m2
20:24 73.0 °F 36.0 °F 30.0 in Calm     26% 0.000 in 0.00 W/m2
20:29 72.0 °F 36.0 °F 30.0 in Calm     27% 0.000 in 0.00 W/m2
20:34 72.0 °F 36.0 °F 30.0 in Calm     27% 0.000 in 0.00 W/m2
20:39 71.0 °F 36.0 °F 30.0 in Calm     28% 0.000 in 0.00 W/m2
20:44 71.0 °F 36.0 °F 30.0 in Calm     28% 0.000 in 0.00 W/m2
20:49 71.0 °F 35.0 °F 30.0 in Calm     27% 0.000 in 0.00 W/m2
20:54 70.0 °F 35.0 °F 30.0 in Calm     27% 0.000 in 0.00 W/m2
20:59 70.0 °F 35.0 °F 30.0 in Calm     27% 0.000 in 0.00 W/m2
21:04 70.0 °F 34.0 °F 30.0 in Calm     27% 0.000 in 0.00 W/m2
21:09 70.0 °F 34.0 °F 30.0 in Calm     27% 0.000 in 0.00 W/m2
21:14 69.0 °F 33.0 °F 30.0 in Calm     26% 0.000 in 0.00 W/m2
21:19 69.0 °F 33.0 °F 30.0 in Calm     27% 0.000 in 0.00 W/m2
21:24 69.0 °F 35.0 °F 30.0 in Calm     29% 0.000 in 0.00 W/m2
21:29 68.0 °F 36.0 °F 30.0 in Calm     30% 0.000 in 0.00 W/m2
21:34 68.0 °F 36.0 °F 30.0 in Calm     31% 0.000 in 0.00 W/m2
21:39 68.0 °F 36.0 °F 30.0 in Calm     31% 0.000 in 0.00 W/m2
21:44 68.0 °F 36.0 °F 30.0 in Calm     31% 0.000 in 0.00 W/m2
21:49 67.0 °F 36.0 °F 30.0 in Calm     31% 0.000 in 0.00 W/m2
21:54 67.0 °F 37.0 °F 30.0 in Calm     33% 0.000 in 0.00 W/m2
21:59 67.0 °F 37.0 °F 30.0 in Calm     33% 0.000 in 0.00 W/m2
22:04 67.0 °F 37.0 °F 30.0 in Calm     34% 0.000 in 0.00 W/m2
22:09 66.0 °F 37.0 °F 30.0 in Calm     34% 0.000 in 0.00 W/m2
22:14 66.0 °F 37.0 °F 30.0 in Calm     34% 0.000 in 0.00 W/m2
22:19 66.0 °F 37.0 °F 30.0 in Calm     34% 0.000 in 0.00 W/m2
22:24 66.0 °F 37.0 °F 30.0 in Calm     34% 0.000 in 0.00 W/m2
22:29 65.0 °F 40.0 °F 30.0 in Calm     40% 0.000 in 0.00 W/m2
22:34 65.0 °F 39.0 °F 30.0 in Calm     38% 0.000 in 0.00 W/m2
22:39 65.0 °F 38.0 °F 30.0 in Calm     38% 0.000 in 0.00 W/m2
22:44 64.0 °F 39.0 °F 30.0 in Calm     39% 0.000 in 0.00 W/m2
22:49 64.0 °F 38.0 °F 30.0 in Calm     38% 0.000 in 0.00 W/m2
22:54 64.0 °F 38.0 °F 30.0 in Calm     38% 0.000 in 0.00 W/m2
22:59 64.0 °F 36.0 °F 30.0 in Calm     36% 0.000 in 0.00 W/m2
23:04 63.0 °F 35.0 °F 30.0 in Calm     35% 0.000 in 0.00 W/m2
23:09 63.0 °F 36.0 °F 30.0 in Calm     37% 0.000 in 0.00 W/m2
23:14 63.0 °F 36.0 °F 30.0 in Calm     36% 0.000 in 0.00 W/m2
23:19 63.0 °F 35.0 °F 30.0 in Calm     36% 0.000 in 0.00 W/m2
23:24 63.0 °F 35.0 °F 30.0 in Calm     36% 0.000 in 0.00 W/m2
23:29 62.0 °F 35.0 °F 30.0 in Calm     36% 0.000 in 0.00 W/m2
23:34 62.0 °F 36.0 °F 30.0 in Calm     37% 0.000 in 0.00 W/m2
23:39 62.0 °F 35.0 °F 30.0 in Calm     37% 0.000 in 0.00 W/m2
23:44 62.0 °F 35.0 °F 30.0 in Calm     37% 0.000 in 0.00 W/m2
23:49 62.0 °F 35.0 °F 30.0 in Calm     37% 0.000 in 0.00 W/m2
23:54 62.0 °F 35.0 °F 30.0 in Calm     37% 0.000 in 0.00 W/m2
23:59 62.0 °F 36.0 °F 30.0 in Calm     38% 0.000 in 0.00 W/m2
El Dorado Weather
Compliments of Weather Underground - 2 mb